Time;durP1;ratioP1;P1;durP2;ratioP2;P2;SDS_P1;SDS_P2;PMS_P1;PMS_P2;Temp;Humidity;BMP_temperature;BMP_pressure;BME280_temperature;BME280_humidity;BME280_pressure;Samples;Min_cycle;Max_cycle;Signal;HPM_P1;HPM_P2
2023/07/29 00:02:15;;;;;;;0.40;0.30;;;22.50;61.90;;;;;;5053418;28;20067;-81
2023/07/29 00:04:40;;;;;;;0.40;0.40;;;22.50;61.80;;;;;;5053671;28;20021;-80
2023/07/29 00:07:06;;;;;;;0.45;0.40;;;22.50;61.80;;;;;;5053329;28;20036;-81
2023/07/29 00:09:32;;;;;;;1.00;0.55;;;22.50;61.80;;;;;;5053201;28;20025;-81
2023/07/29 00:11:57;;;;;;;0.30;0.30;;;22.50;61.90;;;;;;5053233;28;20040;-81
2023/07/29 00:14:23;;;;;;;0.20;0.20;;;22.40;61.80;;;;;;5053080;28;20052;-80
2023/07/29 00:16:51;;;;;;;0.55;0.30;;;22.40;61.20;;;;;;5053504;28;20033;-81
2023/07/29 00:19:17;;;;;;;0.40;0.35;;;22.40;61.80;;;;;;5053012;28;20190;-81
2023/07/29 00:21:43;;;;;;;0.98;0.55;;;22.40;61.80;;;;;;5053351;28;20029;-81
2023/07/29 00:24:09;;;;;;;0.30;0.30;;;22.40;61.80;;;;;;5053303;28;20017;-80
2023/07/29 00:26:35;;;;;;;0.30;0.30;;;22.40;61.80;;;;;;5052868;28;20116;-81
2023/07/29 00:29:02;;;;;;;0.57;0.50;;;22.40;61.80;;;;;;5052833;28;20021;-81
2023/07/29 00:31:28;;;;;;;0.30;0.28;;;22.40;61.90;;;;;;5052845;28;20021;-81
2023/07/29 00:33:54;;;;;;;0.47;0.35;;;22.40;61.80;;;;;;5053171;28;20032;-80
2023/07/29 00:36:20;;;;;;;0.30;0.30;;;22.40;61.90;;;;;;5052711;28;20442;-81
2023/07/29 00:38:46;;;;;;;0.63;0.40;;;22.40;61.90;;;;;;5051795;28;20025;-81
2023/07/29 00:41:14;;;;;;;0.50;0.40;;;22.40;61.90;;;;;;5052607;28;20025;-80
2023/07/29 00:43:40;;;;;;;0.40;0.22;;;22.40;61.90;;;;;;5052845;28;20067;-80
2023/07/29 00:46:08;;;;;;;0.50;0.35;;;22.40;61.90;;;;;;5052839;28;20025;-80
2023/07/29 00:48:35;;;;;;;0.82;0.30;;;;;;;;;;5052796;28;20032;-81
2023/07/29 00:51:01;;;;;;;0.90;0.50;;;22.30;61.30;;;;;;5052547;28;20056;-80
2023/07/29 00:53:27;;;;;;;0.30;0.30;;;22.30;61.90;;;;;;5050371;28;20021;-80
2023/07/29 00:55:53;;;;;;;0.30;0.30;;;22.40;61.90;;;;;;5052213;28;20090;-81
2023/07/29 00:58:19;;;;;;;0.40;0.40;;;22.30;61.90;;;;;;5052350;28;20495;-80
2023/07/29 01:00:46;;;;;;;0.50;0.30;;;22.40;61.90;;;;;;5052520;28;20033;-81
2023/07/29 01:03:13;;;;;;;0.80;0.38;;;22.30;61.80;;;;;;5052522;28;20017;-81
2023/07/29 01:06:22;;;;;;;0.28;0.28;;;22.30;61.90;;;;;;5053103;28;20483;-81
2023/07/29 01:08:55;;;;;;;0.82;0.43;;;22.30;61.90;;;;;;5051383;28;20044;-81
2023/07/29 01:11:37;;;;;;;0.57;0.40;;;22.30;61.90;;;;;;5052186;28;20021;-80
2023/07/29 01:14:21;;;;;;;0.47;0.30;;;22.30;61.90;;;;;;5052233;28;20076;-80
2023/07/29 01:16:53;;;;;;;0.55;0.47;;;22.30;61.30;;;;;;5052098;28;20094;-80
2023/07/29 01:19:31;;;;;;;0.63;0.40;;;22.30;61.90;;;;;;5052009;28;20021;-80
2023/07/29 01:21:59;;;;;;;1.38;0.50;;;22.30;61.90;;;;;;5052293;28;20108;-80
2023/07/29 01:24:25;;;;;;;0.63;0.40;;;;;;;;;;5052317;28;20029;-81
2023/07/29 01:26:51;;;;;;;1.20;0.52;;;22.40;61.30;;;;;;5051820;28;20025;-81
2023/07/29 01:29:17;;;;;;;0.52;0.35;;;22.30;61.90;;;;;;5051924;28;20029;-80
2023/07/29 01:31:44;;;;;;;1.00;0.45;;;22.30;61.80;;;;;;5051877;28;20071;-80
2023/07/29 01:34:30;;;;;;;0.22;0.22;;;22.30;61.90;;;;;;5052605;28;20421;-80
2023/07/29 01:36:59;;;;;;;0.73;0.30;;;22.20;61.80;;;;;;5051797;28;20427;-81
2023/07/29 01:39:28;;;;;;;0.70;0.43;;;22.20;61.80;;;;;;5051865;28;20096;-81
2023/07/29 01:41:54;;;;;;;0.37;0.30;;;22.20;62.60;;;;;;5051744;28;20036;-81
2023/07/29 01:44:20;;;;;;;0.40;0.40;;;22.20;61.90;;;;;;5051864;28;20021;-81
2023/07/29 01:46:47;;;;;;;0.65;0.30;;;22.20;61.90;;;;;;5051714;28;20028;-81
2023/07/29 01:49:12;;;;;;;0.93;0.50;;;22.20;61.90;;;;;;5051782;28;20208;-81
2023/07/29 01:51:38;;;;;;;0.50;0.40;;;22.20;61.90;;;;;;5050463;28;20052;-81
2023/07/29 01:54:04;;;;;;;0.40;0.40;;;22.20;61.90;;;;;;5051876;28;20032;-81
2023/07/29 01:56:30;;;;;;;0.55;0.55;;;22.00;83.10;;;;;;5051936;28;20501;-81
2023/07/29 01:58:56;;;;;;;0.60;0.50;;;22.20;62.00;;;;;;5051616;28;20096;-81
2023/07/29 02:01:22;;;;;;;0.30;0.30;;;22.40;81.90;;;;;;5052145;28;20025;-80
2023/07/29 02:03:54;;;;;;;0.45;0.30;;;22.20;62.00;;;;;;5051552;28;20025;-81
2023/07/29 02:06:20;;;;;;;0.47;0.30;;;22.10;61.90;;;;;;5055645;28;20031;-80
2023/07/29 02:08:45;;;;;;;0.30;0.30;;;22.20;62.00;;;;;;5055545;28;20025;-80
2023/07/29 02:11:11;;;;;;;0.63;0.50;;;22.10;61.90;;;;;;5054284;28;20061;-81
2023/07/29 02:13:36;;;;;;;0.43;0.38;;;22.10;61.90;;;;;;5055387;28;20052;-80
2023/07/29 02:16:02;;;;;;;0.75;0.35;;;22.10;61.90;;;;;;5055379;28;20041;-80
2023/07/29 02:18:28;;;;;;;0.25;0.20;;;22.10;61.80;;;;;;5055439;28;20025;-81
2023/07/29 02:20:54;;;;;;;0.60;0.30;;;22.10;61.90;;;;;;5055535;28;20021;-81
2023/07/29 02:23:20;;;;;;;0.57;0.30;;;22.10;61.90;;;;;;5055855;28;20025;-81
2023/07/29 02:25:46;;;;;;;0.40;0.30;;;22.10;61.90;;;;;;5055191;28;20548;-81
2023/07/29 02:28:12;;;;;;;0.28;0.20;;;22.10;61.80;;;;;;5055406;28;20021;-81
2023/07/29 02:30:44;;;;;;;1.05;0.40;;;22.10;61.90;;;;;;5056006;28;20029;-81
2023/07/29 02:33:10;;;;;;;0.95;0.57;;;22.10;61.90;;;;;;5055111;28;20070;-80
2023/07/29 02:35:36;;;;;;;1.02;0.40;;;22.10;61.90;;;;;;5055135;28;20029;-81
2023/07/29 02:38:01;;;;;;;0.52;0.30;;;22.10;61.90;;;;;;5054980;28;20029;-81
2023/07/29 02:40:29;;;;;;;1.20;0.30;;;22.00;61.80;;;;;;5055030;28;20028;-81
2023/07/29 02:42:54;;;;;;;0.40;0.30;;;22.10;61.90;;;;;;5055088;28;20029;-80
2023/07/29 02:45:20;;;;;;;0.38;0.38;;;22.10;62.50;;;;;;5054896;28;20468;-81
2023/07/29 02:47:46;;;;;;;0.55;0.32;;;22.10;61.80;;;;;;5054760;28;20104;-80
2023/07/29 02:50:12;;;;;;;0.52;0.38;;;22.10;81.50;;;;;;5054618;28;20075;-81
2023/07/29 02:52:38;;;;;;;0.38;0.30;;;22.00;61.80;;;;;;5053440;28;20367;-80
2023/07/29 02:55:04;;;;;;;0.45;0.40;;;22.00;61.80;;;;;;5054613;28;20086;-81
2023/07/29 02:57:29;;;;;;;0.30;0.30;;;22.00;61.70;;;;;;5054500;28;20033;-80
2023/07/29 02:59:55;;;;;;;0.57;0.40;;;22.00;61.80;;;;;;5055120;28;20387;-81
2023/07/29 03:02:20;;;;;;;0.40;0.40;;;22.00;61.80;;;;;;5054550;28;20032;-81
2023/07/29 03:04:48;;;;;;;0.40;0.40;;;22.00;61.80;;;;;;5054553;28;20032;-80
2023/07/29 03:07:14;;;;;;;0.30;0.30;;;22.00;61.70;;;;;;5054420;28;20106;-81
2023/07/29 03:09:41;;;;;;;1.08;0.47;;;22.00;61.80;;;;;;5054977;28;20065;-81
2023/07/29 03:12:07;;;;;;;0.38;0.30;;;22.00;61.80;;;;;;5054461;28;20028;-81
2023/07/29 03:14:33;;;;;;;0.32;0.30;;;22.00;61.80;;;;;;5054261;28;20120;-80
2023/07/29 03:17:04;;;;;;;0.52;0.32;;;21.90;61.70;;;;;;5053564;28;20155;-81
2023/07/29 03:19:29;;;;;;;0.47;0.40;;;22.00;61.70;;;;;;5054622;28;20048;-80
2023/07/29 03:21:55;;;;;;;0.90;0.50;;;22.00;61.80;;;;;;5054327;28;20051;-81
2023/07/29 03:24:20;;;;;;;0.52;0.30;;;22.00;61.80;;;;;;5054179;28;20509;-81
2023/07/29 03:26:46;;;;;;;0.40;0.30;;;21.90;61.80;;;;;;5054747;28;20040;-81
2023/07/29 03:29:11;;;;;;;1.02;0.40;;;21.90;61.60;;;;;;5054112;28;20017;-81
2023/07/29 03:31:37;;;;;;;0.50;0.40;;;21.90;61.70;;;;;;5054159;28;20387;-81
2023/07/29 03:34:03;;;;;;;0.43;0.43;;;21.90;61.70;;;;;;5053931;28;20025;-80
2023/07/29 03:36:29;;;;;;;1.23;0.50;;;21.90;61.60;;;;;;5054076;28;20141;-81
2023/07/29 03:38:55;;;;;;;0.43;0.40;;;21.90;61.70;;;;;;5053897;28;20096;-81
2023/07/29 03:41:20;;;;;;;0.47;0.40;;;21.90;61.80;;;;;;5053865;28;20460;-77
2023/07/29 03:43:46;;;;;;;0.45;0.40;;;21.90;61.70;;;;;;5053693;28;20031;-77
2023/07/29 03:46:13;;;;;;;0.70;0.43;;;21.90;61.80;;;;;;5053592;28;20106;-76
2023/07/29 03:48:38;;;;;;;0.63;0.30;;;21.90;61.70;;;;;;5053709;28;20116;-76
2023/07/29 03:51:04;;;;;;;0.30;0.30;;;21.90;61.70;;;;;;5053614;28;20104;-77
2023/07/29 03:53:30;;;;;;;2.00;0.40;;;21.90;61.60;;;;;;5053630;28;20052;-77
2023/07/29 03:55:56;;;;;;;0.40;0.40;;;21.90;61.70;;;;;;5054223;28;20033;-77
2023/07/29 03:58:21;;;;;;;1.00;0.40;;;21.80;61.60;;;;;;5053479;28;20029;-77
2023/07/29 04:00:47;;;;;;;0.45;0.40;;;21.80;61.60;;;;;;5053376;28;20516;-76
2023/07/29 04:03:13;;;;;;;0.57;0.57;;;21.80;61.70;;;;;;5053353;28;20431;-77
2023/07/29 04:05:38;;;;;;;0.30;0.30;;;21.80;61.70;;;;;;5053367;28;20099;-77
2023/07/29 04:08:04;;;;;;;0.40;0.40;;;21.80;61.60;;;;;;5053282;28;20032;-77
2023/07/29 04:10:31;;;;;;;0.40;0.40;;;21.80;61.60;;;;;;5053172;28;20104;-77
2023/07/29 04:12:57;;;;;;;0.55;0.55;;;21.80;61.60;;;;;;5053127;28;20035;-77
2023/07/29 04:15:22;;;;;;;0.50;0.50;;;21.80;61.60;;;;;;5052849;28;20128;-77
2023/07/29 04:17:48;;;;;;;0.50;0.40;;;21.80;61.70;;;;;;5052949;28;20037;-77
2023/07/29 04:20:14;;;;;;;1.45;0.65;;;21.80;61.60;;;;;;5052968;28;20021;-77
2023/07/29 04:22:39;;;;;;;0.95;0.60;;;21.80;61.70;;;;;;5052881;28;20432;-77
2023/07/29 04:25:06;;;;;;;0.70;0.40;;;21.80;61.60;;;;;;5053513;28;20021;-77
2023/07/29 04:27:31;;;;;;;1.00;0.40;;;21.70;81.60;;;;;;5052720;28;20108;-76
2023/07/29 04:29:57;;;;;;;0.75;0.40;;;21.70;61.70;;;;;;5052760;28;20108;-76
2023/07/29 04:32:22;;;;;;;0.60;0.60;;;21.80;61.60;;;;;;5052861;28;20039;-77
2023/07/29 04:34:48;;;;;;;1.13;0.68;;;21.70;61.60;;;;;;5053130;28;20079;-77
2023/07/29 04:37:14;;;;;;;0.90;0.60;;;21.70;61.70;;;;;;5052878;28;20040;-81
2023/07/29 04:39:39;;;;;;;1.50;0.70;;;21.70;61.70;;;;;;5052566;28;20019;-79
2023/07/29 04:42:05;;;;;;;1.20;0.70;;;21.70;61.70;;;;;;5052493;28;20047;-79
2023/07/29 04:44:31;;;;;;;1.17;0.50;;;21.70;61.60;;;;;;5052498;28;20033;-80
2023/07/29 04:46:56;;;;;;;0.60;0.50;;;21.70;61.60;;;;;;5052473;28;20517;-79
2023/07/29 04:49:22;;;;;;;0.93;0.50;;;21.70;61.70;;;;;;5051170;28;20037;-79
2023/07/29 04:51:48;;;;;;;0.77;0.38;;;21.70;61.70;;;;;;5052857;28;20049;-80
2023/07/29 04:54:13;;;;;;;1.35;0.50;;;21.70;61.80;;;;;;5052367;28;20494;-79
2023/07/29 04:56:39;;;;;;;0.90;0.50;;;21.70;61.80;;;;;;5052167;28;20120;-80
2023/07/29 04:59:05;;;;;;;0.90;0.60;;;21.70;61.70;;;;;;5052360;28;20043;-79
2023/07/29 05:01:30;;;;;;;1.23;0.60;;;21.90;83.10;;;;;;5052107;28;20025;-80
2023/07/29 05:03:56;;;;;;;1.00;0.60;;;21.70;61.70;;;;;;5052211;28;20048;-79
2023/07/29 05:06:22;;;;;;;0.68;0.50;;;21.70;61.70;;;;;;5052177;28;20035;-76
2023/07/29 05:08:49;;;;;;;0.60;0.50;;;21.60;61.70;;;;;;5052240;28;20025;-76
2023/07/29 05:11:15;;;;;;;1.08;0.60;;;21.60;61.80;;;;;;5052277;28;20390;-75
2023/07/29 05:13:42;;;;;;;0.57;0.57;;;21.60;61.70;;;;;;5051829;28;20116;-76
2023/07/29 05:16:08;;;;;;;0.60;0.47;;;21.60;61.70;;;;;;5051917;28;20120;-76
2023/07/29 05:18:33;;;;;;;1.45;0.60;;;21.60;61.80;;;;;;5052024;28;20124;-76
2023/07/29 05:20:59;;;;;;;0.65;0.40;;;21.60;61.70;;;;;;5052520;28;20024;-75
2023/07/29 05:23:25;;;;;;;0.93;0.50;;;21.60;61.70;;;;;;5052193;28;20021;-75
2023/07/29 05:25:50;;;;;;;0.80;0.50;;;21.60;61.70;;;;;;5051942;28;20029;-75
2023/07/29 05:28:16;;;;;;;1.60;0.80;;;21.60;61.80;;;;;;5052218;28;20032;-75
2023/07/29 05:30:44;;;;;;;0.43;0.43;;;21.60;61.70;;;;;;5052195;28;20032;-76
2023/07/29 05:33:09;;;;;;;1.17;0.63;;;21.60;61.80;;;;;;5051950;28;20017;-76
2023/07/29 05:35:35;;;;;;;0.60;0.50;;;21.60;61.70;;;;;;5052008;28;20044;-76
2023/07/29 05:38:01;;;;;;;1.27;0.63;;;21.60;61.70;;;;;;5051750;28;20074;-76
2023/07/29 05:40:26;;;;;;;0.57;0.55;;;21.60;61.80;;;;;;5051224;28;20056;-76
2023/07/29 05:42:52;;;;;;;0.50;0.50;;;21.60;61.70;;;;;;5051615;28;20029;-76
2023/07/29 05:45:17;;;;;;;0.85;0.70;;;21.60;61.70;;;;;;5051693;28;20384;-76
2023/07/29 05:47:43;;;;;;;0.77;0.60;;;21.60;61.70;;;;;;5051613;28;20029;-76
2023/07/29 05:50:09;;;;;;;0.88;0.70;;;21.60;61.70;;;;;;5052192;28;20021;-75
2023/07/29 05:52:35;;;;;;;0.75;0.65;;;21.60;61.80;;;;;;5051680;28;20095;-76
2023/07/29 05:55:00;;;;;;;1.10;0.60;;;21.60;61.80;;;;;;5051553;28;20051;-76
2023/07/29 05:57:26;;;;;;;0.65;0.50;;;21.60;61.80;;;;;;5051531;28;20037;-76
2023/07/29 05:59:52;;;;;;;0.50;0.50;;;21.60;61.80;;;;;;5051578;28;20017;-76
2023/07/29 06:02:18;;;;;;;0.68;0.55;;;21.70;81.80;;;;;;5051606;28;20537;-75
2023/07/29 06:04:43;;;;;;;1.73;0.65;;;21.60;61.90;;;;;;5051473;28;20027;-76
2023/07/29 06:07:09;;;;;;;0.88;0.50;;;21.60;61.80;;;;;;5051551;28;20029;-76
2023/07/29 06:09:35;;;;;;;0.60;0.50;;;21.60;62.00;;;;;;5051474;28;20025;-76
2023/07/29 06:12:00;;;;;;;0.60;0.60;;;21.60;61.90;;;;;;5051531;28;20025;-75
2023/07/29 06:14:26;;;;;;;0.68;0.50;;;21.60;61.90;;;;;;5051257;28;20041;-76
2023/07/29 06:16:52;;;;;;;0.65;0.40;;;;;;;;;;5051158;28;20170;-75
2023/07/29 06:19:19;;;;;;;0.70;0.70;;;21.60;61.40;;;;;;5051815;28;20438;-76
2023/07/29 06:21:45;;;;;;;5.07;0.60;;;21.60;62.00;;;;;;5051280;28;20106;-75
2023/07/29 06:24:11;;;;;;;1.05;0.50;;;21.60;62.00;;;;;;5051266;28;20053;-75
2023/07/29 06:26:36;;;;;;;1.50;0.60;;;21.60;62.10;;;;;;5051364;28;20032;-75
2023/07/29 06:29:02;;;;;;;0.60;0.50;;;21.60;62.10;;;;;;5051272;28;20052;-75
2023/07/29 06:31:27;;;;;;;0.75;0.70;;;21.60;62.00;;;;;;5050016;28;20036;-80
2023/07/29 06:33:54;;;;;;;0.70;0.70;;;21.60;62.10;;;;;;5051058;28;20364;-79
2023/07/29 06:36:20;;;;;;;1.05;0.57;;;21.60;62.10;;;;;;5051203;28;20463;-79
2023/07/29 06:38:45;;;;;;;0.70;0.52;;;21.60;62.10;;;;;;5051177;28;20056;-79
2023/07/29 06:41:11;;;;;;;0.70;0.60;;;21.60;62.10;;;;;;5051085;28;20434;-80
2023/07/29 06:43:37;;;;;;;1.17;0.43;;;21.60;62.10;;;;;;5051168;28;20029;-79
2023/07/29 06:46:02;;;;;;;0.50;0.40;;;21.60;62.20;;;;;;5050592;28;20059;-75
2023/07/29 06:48:28;;;;;;;0.77;0.70;;;21.60;62.20;;;;;;5051110;28;20017;-76
2023/07/29 06:50:55;;;;;;;1.33;0.55;;;21.60;62.20;;;;;;5051049;28;20022;-76
2023/07/29 06:53:21;;;;;;;0.70;0.40;;;21.60;62.20;;;;;;5054647;28;20029;-76
2023/07/29 06:55:47;;;;;;;0.70;0.70;;;21.60;62.20;;;;;;5054541;28;20070;-75
2023/07/29 06:58:12;;;;;;;1.02;0.82;;;21.60;62.30;;;;;;5054643;28;20033;-76
2023/07/29 07:00:38;;;;;;;1.27;0.70;;;21.70;62.30;;;;;;5054498;28;20078;-75
2023/07/29 07:03:04;;;;;;;0.95;0.57;;;21.60;62.30;;;;;;5054304;28;20033;-75
2023/07/29 07:05:29;;;;;;;0.50;0.50;;;21.60;62.30;;;;;;5054529;28;20032;-75
2023/07/29 07:07:55;;;;;;;0.60;0.55;;;21.60;62.30;;;;;;5054425;28;20021;-75
2023/07/29 07:10:20;;;;;;;0.80;0.50;;;21.70;62.30;;;;;;5054342;28;20343;-75
2023/07/29 07:12:46;;;;;;;0.98;0.50;;;21.60;62.30;;;;;;5054552;28;20044;-76
2023/07/29 07:15:11;;;;;;;0.73;0.50;;;21.60;62.40;;;;;;5054539;28;20499;-76
2023/07/29 07:17:37;;;;;;;0.80;0.68;;;21.70;62.40;;;;;;5054214;28;20044;-74
2023/07/29 07:20:03;;;;;;;1.20;0.82;;;21.70;62.40;;;;;;5054191;28;20024;-76
2023/07/29 07:22:29;;;;;;;1.35;0.70;;;21.70;62.40;;;;;;5054220;28;20060;-76
2023/07/29 07:24:54;;;;;;;0.60;0.40;;;21.70;62.40;;;;;;5052979;28;20052;-76
2023/07/29 07:27:20;;;;;;;0.50;0.50;;;21.70;62.50;;;;;;5054104;28;20075;-76
2023/07/29 07:29:46;;;;;;;0.63;0.50;;;21.70;62.50;;;;;;5054092;28;20033;-76
2023/07/29 07:32:11;;;;;;;0.60;0.60;;;21.70;62.60;;;;;;5053975;28;20365;-76
2023/07/29 07:34:37;;;;;;;0.63;0.63;;;21.70;62.60;;;;;;5053891;28;20104;-76
2023/07/29 07:37:04;;;;;;;0.82;0.52;;;21.80;62.60;;;;;;5053850;28;20068;-76
2023/07/29 07:39:30;;;;;;;1.55;0.80;;;21.70;62.60;;;;;;5053900;28;20017;-76
2023/07/29 07:41:55;;;;;;;0.60;0.40;;;21.70;62.60;;;;;;5053904;28;20036;-76
2023/07/29 07:44:21;;;;;;;0.85;0.52;;;21.70;62.60;;;;;;5054287;28;20033;-76
2023/07/29 07:46:46;;;;;;;0.80;0.70;;;21.70;62.70;;;;;;5053651;28;20025;-76
2023/07/29 07:49:13;;;;;;;1.38;0.73;;;21.70;62.70;;;;;;5053710;28;20029;-76
2023/07/29 07:51:39;;;;;;;0.70;0.68;;;21.80;62.80;;;;;;5053866;28;20017;-76
2023/07/29 07:54:04;;;;;;;0.60;0.60;;;21.70;62.70;;;;;;5053746;28;20039;-76
2023/07/29 07:56:30;;;;;;;1.42;0.80;;;21.80;82.60;;;;;;5053689;28;20044;-76
2023/07/29 07:58:56;;;;;;;0.70;0.68;;;21.70;62.80;;;;;;5053641;28;20025;-76
2023/07/29 08:01:21;;;;;;;2.25;0.50;;;22.00;83.00;;;;;;5053533;28;20029;-76
2023/07/29 08:03:47;;;;;;;0.80;0.55;;;21.80;62.90;;;;;;5053094;28;20391;-76
2023/07/29 08:06:13;;;;;;;0.55;0.50;;;21.80;62.90;;;;;;5053378;28;20087;-76
2023/07/29 08:08:38;;;;;;;0.80;0.70;;;21.80;63.00;;;;;;5053351;28;20083;-76
2023/07/29 08:11:04;;;;;;;0.85;0.80;;;21.80;63.00;;;;;;5053260;28;20029;-76
2023/07/29 08:13:30;;;;;;;0.70;0.70;;;21.80;63.00;;;;;;5053594;28;20021;-76
2023/07/29 08:15:55;;;;;;;1.00;0.60;;;21.80;63.00;;;;;;5053353;28;20462;-76
2023/07/29 08:18:21;;;;;;;1.55;0.80;;;21.80;63.00;;;;;;5053039;28;20530;-76
2023/07/29 08:20:54;;;;;;;1.00;0.68;;;21.80;63.10;;;;;;5053092;28;20601;-76
2023/07/29 08:23:20;;;;;;;0.55;0.52;;;;;;;;;;5053038;28;20032;-76
2023/07/29 08:25:56;;;;;;;1.10;0.73;;;21.90;62.50;;;;;;5053064;28;20036;-76
2023/07/29 08:28:24;;;;;;;1.05;0.68;;;21.90;63.20;;;;;;5052933;28;20017;-76
2023/07/29 08:30:51;;;;;;;1.10;0.50;;;21.90;63.10;;;;;;5052889;28;20075;-76
2023/07/29 08:33:17;;;;;;;0.93;0.73;;;22.00;63.10;;;;;;5053198;28;20021;-76
2023/07/29 08:35:43;;;;;;;1.60;0.70;;;22.00;63.10;;;;;;5052999;28;20475;-76
2023/07/29 08:38:09;;;;;;;1.48;0.80;;;22.00;63.10;;;;;;5052760;28;20036;-76
2023/07/29 08:40:38;;;;;;;1.73;0.80;;;22.00;63.10;;;;;;5053540;28;20017;-76
2023/07/29 08:43:05;;;;;;;0.70;0.70;;;22.00;63.20;;;;;;5052917;28;20013;-76
2023/07/29 08:45:38;;;;;;;0.98;0.70;;;22.10;63.30;;;;;;5052878;28;20383;-76
2023/07/29 08:48:43;;;;;;;1.25;0.57;;;22.10;63.90;;;;;;5052446;28;20067;-76
2023/07/29 08:51:11;;;;;;;1.00;0.60;;;22.10;63.30;;;;;;5052929;28;20013;-76
2023/07/29 08:53:38;;;;;;;1.13;0.57;;;22.10;63.40;;;;;;5052823;28;20392;-76
2023/07/29 08:56:07;;;;;;;1.48;1.05;;;22.20;63.50;;;;;;5052309;28;20025;-76
2023/07/29 08:58:34;;;;;;;0.82;0.60;;;22.20;63.40;;;;;;5052551;28;20122;-76
2023/07/29 09:01:00;;;;;;;0.73;0.73;;;22.20;63.50;;;;;;5052345;28;20091;-76
2023/07/29 09:03:26;;;;;;;1.02;0.88;;;22.20;63.50;;;;;;5052499;28;20032;-76
2023/07/29 09:05:54;;;;;;;1.48;0.80;;;22.20;63.70;;;;;;5052239;28;20124;-77
2023/07/29 09:08:21;;;;;;;0.60;0.60;;;22.20;63.60;;;;;;5052841;28;20490;-76
2023/07/29 09:10:47;;;;;;;1.23;0.60;;;22.20;63.70;;;;;;5052172;28;20471;-76
2023/07/29 09:13:13;;;;;;;1.05;0.60;;;22.20;63.80;;;;;;5052446;28;20382;-76
2023/07/29 09:15:39;;;;;;;0.60;0.60;;;22.20;63.90;;;;;;5051147;28;20059;-76
2023/07/29 09:18:10;;;;;;;1.63;0.70;;;22.20;63.90;;;;;;5052369;28;20146;-76
2023/07/29 09:20:37;;;;;;;0.75;0.73;;;22.30;64.00;;;;;;5052409;28;20051;-76
2023/07/29 09:23:03;;;;;;;1.92;0.70;;;22.30;64.00;;;;;;5052252;28;20082;-76
2023/07/29 09:25:30;;;;;;;2.17;0.85;;;22.30;64.10;;;;;;5051921;28;20391;-76
2023/07/29 09:28:00;;;;;;;0.65;0.65;;;22.30;64.00;;;;;;5051880;28;20021;-76
2023/07/29 09:30:27;;;;;;;0.95;0.60;;;22.30;64.00;;;;;;5052186;28;20024;-76
2023/07/29 09:32:57;;;;;;;1.73;0.70;;;22.40;64.00;;;;;;5052018;28;20036;-76
2023/07/29 09:35:26;;;;;;;0.63;0.63;;;22.40;63.90;;;;;;5052085;28;20028;-76
2023/07/29 09:37:52;;;;;;;1.02;0.70;;;22.40;63.80;;;;;;5052467;28;20432;-76
2023/07/29 09:40:19;;;;;;;0.80;0.60;;;22.40;63.80;;;;;;5052135;28;20357;-76
2023/07/29 09:42:52;;;;;;;1.15;0.90;;;22.50;63.90;;;;;;5051605;28;20021;-76
2023/07/29 09:45:26;;;;;;;0.80;0.80;;;22.50;63.90;;;;;;5051998;28;20356;-76
2023/07/29 09:47:54;;;;;;;0.63;0.63;;;22.50;64.00;;;;;;5051973;28;20107;-76
2023/07/29 09:50:26;;;;;;;0.82;0.70;;;22.50;63.90;;;;;;5051977;28;20021;-76
2023/07/29 09:52:55;;;;;;;0.55;0.55;;;22.50;64.00;;;;;;5051789;28;20048;-76
2023/07/29 09:55:23;;;;;;;1.55;0.80;;;22.50;64.00;;;;;;5051913;28;20013;-76
2023/07/29 09:57:55;;;;;;;1.25;0.40;;;22.50;64.10;;;;;;5051713;28;20074;-76
2023/07/29 10:00:21;;;;;;;0.50;0.50;;;22.50;64.10;;;;;;5051823;28;20380;-76
2023/07/29 10:02:48;;;;;;;0.77;0.70;;;22.50;64.10;;;;;;5051662;28;20142;-76
2023/07/29 10:05:15;;;;;;;0.60;0.60;;;22.50;64.10;;;;;;5052224;28;20383;-76
2023/07/29 10:07:41;;;;;;;0.82;0.70;;;;;;;;;;5051815;28;20048;-76
2023/07/29 10:10:08;;;;;;;0.70;0.70;;;22.50;63.60;;;;;;5050248;28;20106;-76
2023/07/29 10:12:35;;;;;;;0.85;0.60;;;22.50;64.10;;;;;;5051455;28;20021;-76
2023/07/29 10:15:06;;;;;;;1.48;0.60;;;22.50;64.20;;;;;;5051226;28;20198;-76
2023/07/29 10:17:41;;;;;;;1.20;0.60;;;22.50;64.10;;;;;;5051512;28;20047;-76
2023/07/29 10:20:10;;;;;;;0.80;0.75;;;22.60;64.30;;;;;;5051717;28;20046;-76
2023/07/29 10:22:41;;;;;;;1.20;0.50;;;22.60;64.20;;;;;;5050429;28;20040;-76
2023/07/29 10:25:18;;;;;;;0.60;0.60;;;22.60;64.30;;;;;;5051859;28;20021;-76
2023/07/29 10:28:00;;;;;;;0.80;0.63;;;22.60;64.30;;;;;;5055160;28;20029;-76
2023/07/29 10:30:28;;;;;;;2.28;0.60;;;22.60;64.10;;;;;;5055496;28;20415;-76
2023/07/29 10:32:58;;;;;;;1.65;0.80;;;22.60;64.30;;;;;;5054982;28;20098;-76
2023/07/29 10:35:27;;;;;;;0.90;0.90;;;22.60;64.40;;;;;;5055821;28;20082;-76
2023/07/29 10:37:54;;;;;;;0.60;0.55;;;22.60;64.30;;;;;;5055127;28;20543;-76
2023/07/29 10:40:21;;;;;;;0.45;0.45;;;22.60;65.00;;;;;;5054930;28;20013;-76
2023/07/29 10:43:09;;;;;;;0.70;0.50;;;22.60;64.30;;;;;;5055212;28;20127;-76
2023/07/29 10:45:42;;;;;;;0.70;0.50;;;22.60;64.30;;;;;;5054837;28;20031;-76
2023/07/29 10:48:11;;;;;;;0.88;0.65;;;22.60;64.40;;;;;;5055072;28;20047;-76
2023/07/29 10:50:37;;;;;;;0.60;0.60;;;22.60;64.30;;;;;;5054811;28;20578;-76
2023/07/29 10:53:03;;;;;;;1.08;0.68;;;22.60;64.20;;;;;;5054916;28;20037;-76
2023/07/29 10:55:32;;;;;;;0.50;0.50;;;22.60;64.20;;;;;;5054965;28;20098;-76
2023/07/29 10:58:17;;;;;;;1.27;0.60;;;22.60;64.20;;;;;;5054826;28;20056;-76
2023/07/29 11:00:44;;;;;;;0.60;0.60;;;22.60;64.10;;;;;;5054732;28;20013;-76
2023/07/29 11:03:11;;;;;;;1.52;0.73;;;22.60;64.20;;;;;;5055034;28;20063;-76
2023/07/29 11:05:51;;;;;;;0.40;0.40;;;22.60;64.20;;;;;;5054658;28;20063;-76
2023/07/29 11:08:26;;;;;;;0.50;0.50;;;22.60;64.00;;;;;;5054505;28;20028;-75
2023/07/29 11:11:01;;;;;;;1.13;0.60;;;22.60;64.10;;;;;;5054398;28;20013;-76
2023/07/29 11:13:28;;;;;;;0.60;0.57;;;22.60;64.00;;;;;;5054207;28;20100;-76
2023/07/29 11:15:54;;;;;;;0.50;0.50;;;22.60;64.00;;;;;;5054431;28;20075;-76
2023/07/29 11:18:21;;;;;;;0.60;0.60;;;22.60;63.90;;;;;;5054314;28;20448;-76
2023/07/29 11:20:47;;;;;;;0.70;0.70;;;22.60;63.90;;;;;;5054214;28;20031;-76
2023/07/29 11:23:13;;;;;;;0.50;0.50;;;22.80;64.20;;;;;;5054075;28;20074;-76
2023/07/29 11:25:39;;;;;;;0.80;0.75;;;22.80;63.20;;;;;;5054172;28;20159;-76
2023/07/29 11:28:04;;;;;;;1.52;0.75;;;23.00;62.90;;;;;;5053951;28;20025;-76
2023/07/29 11:30:30;;;;;;;0.73;0.50;;;23.00;62.50;;;;;;5054104;28;20029;-76
2023/07/29 11:32:58;;;;;;;0.63;0.63;;;23.10;62.10;;;;;;5054568;28;20053;-76
2023/07/29 11:35:24;;;;;;;0.60;0.60;;;23.20;62.10;;;;;;5054046;28;20095;-76
2023/07/29 11:37:51;;;;;;;0.52;0.50;;;23.20;62.00;;;;;;5053123;28;20071;-76
2023/07/29 11:40:23;;;;;;;0.73;0.50;;;23.20;62.00;;;;;;5053818;28;20037;-76
2023/07/29 11:42:50;;;;;;;0.80;0.60;;;23.20;61.90;;;;;;5053924;28;20103;-76
2023/07/29 11:45:17;;;;;;;0.80;0.50;;;23.20;62.20;;;;;;5053747;28;20021;-76
2023/07/29 11:47:43;;;;;;;0.80;0.50;;;23.20;62.20;;;;;;5053777;28;20075;-76
2023/07/29 11:50:10;;;;;;;0.68;0.38;;;23.20;62.30;;;;;;5053761;28;20483;-75
2023/07/29 11:52:37;;;;;;;0.82;0.52;;;23.20;62.40;;;;;;5053591;28;20094;-76
2023/07/29 11:55:04;;;;;;;1.95;0.50;;;24.10;63.00;;;;;;5053609;28;20028;-76
2023/07/29 11:57:33;;;;;;;0.40;0.30;;;23.10;62.70;;;;;;5053447;28;20071;-76
2023/07/29 11:59:58;;;;;;;0.63;0.60;;;23.10;62.60;;;;;;5053940;28;20028;-80
2023/07/29 12:02:25;;;;;;;0.60;0.60;;;23.10;62.70;;;;;;5053286;28;20021;-79
2023/07/29 12:04:52;;;;;;;0.73;0.47;;;23.10;62.60;;;;;;5053458;28;20375;-79
2023/07/29 12:07:18;;;;;;;0.68;0.40;;;23.10;62.90;;;;;;5053432;28;20013;-80
2023/07/29 12:09:45;;;;;;;0.50;0.50;;;23.10;62.80;;;;;;5053618;28;20418;-79
2023/07/29 12:12:12;;;;;;;0.98;0.60;;;23.10;62.80;;;;;;5052107;28;20017;-80
2023/07/29 12:14:38;;;;;;;1.08;0.65;;;23.10;63.00;;;;;;5052995;28;20041;-76
2023/07/29 12:17:05;;;;;;;0.77;0.68;;;23.10;63.00;;;;;;5053072;28;20032;-76
2023/07/29 12:19:35;;;;;;;1.02;0.73;;;23.10;63.00;;;;;;5053086;28;20029;-76
2023/07/29 12:22:02;;;;;;;;;;;23.20;62.90;;;;;;5053612;28;20021;-76
2023/07/29 12:24:29;;;;;;;0.80;0.80;;;23.30;62.40;;;;;;5052950;28;19904;-76
2023/07/29 12:26:55;;;;;;;0.88;0.75;;;23.50;62.30;;;;;;5052874;28;20031;-76
2023/07/29 12:29:21;;;;;;;0.65;0.50;;;23.60;62.00;;;;;;5053255;28;20029;-76
2023/07/29 12:31:46;;;;;;;2.08;0.82;;;23.80;61.60;;;;;;5052798;28;20013;-76
2023/07/29 12:34:21;;;;;;;0.85;0.60;;;23.90;61.10;;;;;;5052865;28;20086;-76
2023/07/29 12:36:51;;;;;;;0.90;0.60;;;24.10;60.60;;;;;;5052699;28;20144;-76
2023/07/29 12:39:18;;;;;;;0.55;0.55;;;24.20;60.20;;;;;;5052710;28;20043;-76
2023/07/29 12:41:44;;;;;;;0.57;0.57;;;24.30;59.80;;;;;;5052809;28;20047;-77
2023/07/29 12:44:09;;;;;;;0.80;0.70;;;24.40;59.60;;;;;;5052615;28;20029;-77
2023/07/29 12:46:35;;;;;;;0.95;0.70;;;24.50;59.30;;;;;;5052493;28;20103;-77
2023/07/29 12:49:00;;;;;;;0.75;0.60;;;24.70;59.10;;;;;;5052520;28;20494;-77